createdAt,value
2019-03-31T00:00:44.668Z,62.65
2019-03-31T00:03:14.405Z,62.90
2019-03-31T00:05:44.251Z,62.89
2019-03-31T00:08:14.068Z,63.25
2019-03-31T00:10:43.890Z,63.26
2019-03-31T00:13:13.570Z,63.33
2019-03-31T00:15:43.425Z,63.63
2019-03-31T00:18:13.182Z,64.09
2019-03-31T00:20:43.034Z,64.51
2019-03-31T00:23:12.759Z,64.63
2019-03-31T00:25:44.118Z,64.80
2019-03-31T00:28:13.766Z,65.30
2019-03-31T00:30:43.741Z,65.35
2019-03-31T00:33:13.533Z,65.64
2019-03-31T00:35:43.291Z,66.19
2019-03-31T00:38:12.995Z,66.79
2019-03-31T00:40:43.044Z,67.25
2019-03-31T00:43:12.826Z,67.44
2019-03-31T00:45:42.574Z,67.65
2019-03-31T00:48:12.283Z,67.77
2019-03-31T00:50:42.010Z,67.87
2019-03-31T00:53:11.740Z,68.03
2019-03-31T00:55:41.505Z,67.83
2019-03-31T00:58:11.246Z,67.80
2019-03-31T01:00:47.516Z,67.95
2019-03-31T01:03:19.847Z,68.22
2019-03-31T01:05:49.634Z,68.34
2019-03-31T01:08:19.570Z,68.15
2019-03-31T01:10:49.599Z,67.84
2019-03-31T01:13:19.666Z,67.89
2019-03-31T01:15:50.082Z,68.01
2019-03-31T01:18:21.097Z,67.88
2019-03-31T01:20:51.124Z,67.72
2019-03-31T01:23:20.977Z,67.96
2019-03-31T01:25:50.769Z,67.84
2019-03-31T01:28:20.583Z,67.86
2019-03-31T01:30:50.606Z,67.79
2019-03-31T01:33:20.932Z,67.88
2019-03-31T01:35:50.706Z,67.65
2019-03-31T01:38:21.051Z,67.61
2019-03-31T01:40:51.221Z,67.74
2019-03-31T01:43:21.117Z,67.56
2019-03-31T01:45:51.134Z,67.73
2019-03-31T01:48:20.859Z,67.89
2019-03-31T01:50:50.642Z,67.87
2019-03-31T01:53:20.319Z,68.01
2019-03-31T01:55:50.032Z,68.10
2019-03-31T01:58:19.689Z,67.90
2019-03-31T02:00:51.117Z,68.06
2019-03-31T02:03:21.196Z,68.45
2019-03-31T02:05:50.953Z,68.29
2019-03-31T02:08:20.768Z,68.55
2019-03-31T02:10:50.510Z,68.45
2019-03-31T02:13:20.279Z,68.48
2019-03-31T02:15:50.094Z,68.59
2019-03-31T02:18:19.823Z,68.73
2019-03-31T02:20:49.662Z,68.95
2019-03-31T02:23:19.396Z,69.04
2019-03-31T02:25:49.136Z,69.00
2019-03-31T02:28:18.867Z,69.15
2019-03-31T02:30:48.518Z,69.19
2019-03-31T02:33:18.231Z,69.42
2019-03-31T02:35:47.975Z,69.37
2019-03-31T02:38:17.747Z,69.57
2019-03-31T02:40:47.632Z,69.63
2019-03-31T02:43:17.429Z,70.03
2019-03-31T02:45:47.172Z,70.08
2019-03-31T02:48:16.843Z,69.92
2019-03-31T02:50:50.161Z,70.00
2019-03-31T02:53:21.168Z,70.21
2019-03-31T02:55:51.523Z,70.57
2019-03-31T02:58:21.881Z,70.77
2019-03-31T03:00:51.858Z,71.08
2019-03-31T03:03:21.880Z,71.04
2019-03-31T03:05:51.859Z,71.08
2019-03-31T03:08:22.316Z,71.05
2019-03-31T03:10:53.845Z,70.96
2019-03-31T03:13:25.426Z,71.19
2019-03-31T03:16:08.216Z,71.51
2019-03-31T03:18:37.996Z,70.89
2019-03-31T03:21:07.677Z,70.88
2019-03-31T03:23:37.346Z,70.66
2019-03-31T03:26:07.053Z,70.72
2019-03-31T03:28:36.718Z,70.78
2019-03-31T03:31:14.642Z,71.39
2019-03-31T03:33:37.885Z,71.60
2019-03-31T03:36:07.641Z,71.53
2019-03-31T03:38:37.371Z,71.84
2019-03-31T03:41:07.170Z,71.67
2019-03-31T03:43:54.257Z,71.60
2019-03-31T03:46:08.523Z,71.81
2019-03-31T03:48:38.318Z,71.83
2019-03-31T03:51:08.282Z,71.81
2019-03-31T03:53:38.050Z,72.06
2019-03-31T03:56:07.968Z,72.32
2019-03-31T03:58:37.888Z,72.61
2019-03-31T04:01:12.214Z,72.54
2019-03-31T04:03:41.967Z,72.35
2019-03-31T04:06:11.631Z,72.60
2019-03-31T04:08:41.478Z,72.79
2019-03-31T04:11:15.247Z,73.19
2019-03-31T04:13:45.110Z,73.52
2019-03-31T04:16:15.098Z,73.56
2019-03-31T04:18:45.216Z,73.27
2019-03-31T04:21:15.212Z,73.38
2019-03-31T04:23:44.989Z,73.61
2019-03-31T04:26:14.821Z,73.83
2019-03-31T04:28:44.587Z,74.34
2019-03-31T04:31:14.343Z,74.36
2019-03-31T04:33:51.811Z,74.49
2019-03-31T04:36:15.833Z,74.58
2019-03-31T04:38:45.508Z,74.49
2019-03-31T04:41:15.409Z,74.29
2019-03-31T04:43:45.363Z,74.37
2019-03-31T04:46:15.173Z,74.18
2019-03-31T04:48:44.958Z,74.75
2019-03-31T04:51:15.052Z,74.70
2019-03-31T04:53:44.829Z,74.55
2019-03-31T04:56:14.753Z,74.45
2019-03-31T04:58:44.453Z,74.09
2019-03-31T05:01:14.261Z,73.97
2019-03-31T05:03:44.089Z,73.66
2019-03-31T05:06:13.811Z,73.13
2019-03-31T05:08:43.640Z,72.59
2019-03-31T05:11:13.290Z,72.26
2019-03-31T05:13:43.131Z,71.88
2019-03-31T05:16:12.871Z,71.17
2019-03-31T05:18:42.838Z,71.29
2019-03-31T05:21:12.616Z,70.90
2019-03-31T05:23:42.601Z,70.70
2019-03-31T05:26:12.636Z,70.75
2019-03-31T05:28:44.180Z,70.60
2019-03-31T05:31:14.168Z,70.24
2019-03-31T05:33:44.044Z,69.98
2019-03-31T05:36:13.837Z,68.74
2019-03-31T05:38:43.635Z,68.78
2019-03-31T05:41:13.299Z,68.64
2019-03-31T05:43:43.253Z,67.89
2019-03-31T05:46:12.985Z,67.71
2019-03-31T05:48:43.106Z,67.57
2019-03-31T05:51:12.836Z,67.14
2019-03-31T05:53:42.703Z,66.85
2019-03-31T05:56:12.457Z,66.52
2019-03-31T05:58:42.226Z,66.47
2019-03-31T06:01:11.910Z,66.17
2019-03-31T06:03:41.771Z,66.07
2019-03-31T06:06:11.450Z,65.92
2019-03-31T06:08:41.139Z,66.10
2019-03-31T06:11:10.905Z,65.91
2019-03-31T06:13:40.574Z,65.75
2019-03-31T06:16:10.544Z,66.49
2019-03-31T06:18:40.196Z,66.49
2019-03-31T06:21:10.106Z,66.28
2019-03-31T06:23:39.936Z,66.43
2019-03-31T06:26:09.748Z,66.75
2019-03-31T06:28:39.553Z,67.44
2019-03-31T06:31:09.493Z,67.55
2019-03-31T06:33:39.150Z,67.49
2019-03-31T06:36:09.037Z,67.76
2019-03-31T06:38:38.710Z,68.43
2019-03-31T06:41:08.466Z,69.12
2019-03-31T06:43:38.331Z,70.20
2019-03-31T06:46:08.141Z,71.13
2019-03-31T06:48:38.125Z,73.11
2019-03-31T06:51:07.817Z,75.28
2019-03-31T06:53:37.614Z,74.84
2019-03-31T06:56:07.295Z,75.06
2019-03-31T06:58:36.944Z,76.16
2019-03-31T07:01:06.764Z,76.78
2019-03-31T07:03:36.435Z,76.72
2019-03-31T07:06:06.280Z,77.23
2019-03-31T07:08:36.017Z,77.43
2019-03-31T07:11:05.747Z,77.96
2019-03-31T07:13:35.511Z,78.33
2019-03-31T07:16:05.284Z,77.04
2019-03-31T07:18:34.994Z,77.23
2019-03-31T07:21:04.791Z,76.83
2019-03-31T07:23:34.514Z,76.86
2019-03-31T07:26:04.243Z,76.49
2019-03-31T07:28:34.154Z,76.96
2019-03-31T07:31:04.937Z,77.25
2019-03-31T07:33:34.632Z,77.29
2019-03-31T07:36:04.450Z,76.72
2019-03-31T07:38:39.305Z,76.58
2019-03-31T07:41:12.587Z,76.53
2019-03-31T07:43:37.042Z,76.69
2019-03-31T07:46:06.842Z,76.92
2019-03-31T07:48:36.556Z,77.36
2019-03-31T07:51:06.303Z,76.95
2019-03-31T07:53:35.972Z,76.73
2019-03-31T07:56:05.759Z,77.12
2019-03-31T07:58:35.425Z,76.86
2019-03-31T08:01:05.298Z,77.13
2019-03-31T08:03:35.049Z,77.08
2019-03-31T08:06:04.759Z,77.27
2019-03-31T08:08:34.501Z,77.34
2019-03-31T08:11:04.302Z,76.71
2019-03-31T08:13:34.044Z,77.25
2019-03-31T08:16:03.739Z,76.73
2019-03-31T08:18:33.591Z,77.30
2019-03-31T08:21:03.354Z,76.89
2019-03-31T08:23:32.984Z,76.67
2019-03-31T08:26:02.797Z,77.01
2019-03-31T08:28:32.602Z,76.62
2019-03-31T08:31:02.252Z,77.12
2019-03-31T08:33:31.979Z,76.23
2019-03-31T08:36:01.776Z,75.85
2019-03-31T08:38:31.441Z,75.44
2019-03-31T08:41:01.108Z,74.94
2019-03-31T08:43:30.795Z,75.08
2019-03-31T08:46:00.528Z,75.46
2019-03-31T08:48:30.285Z,75.79
2019-03-31T08:51:00.395Z,74.27
2019-03-31T08:53:30.819Z,74.67
2019-03-31T08:56:00.558Z,74.63
2019-03-31T08:58:30.682Z,74.36
2019-03-31T09:01:02.022Z,73.81
2019-03-31T09:03:31.737Z,73.54
2019-03-31T09:06:02.658Z,73.60
2019-03-31T09:08:32.559Z,72.98
2019-03-31T09:11:02.273Z,72.57
2019-03-31T09:13:32.015Z,72.82
2019-03-31T09:16:01.708Z,71.64
2019-03-31T09:18:31.521Z,71.80
2019-03-31T09:21:01.258Z,72.09
2019-03-31T09:23:30.906Z,71.99
2019-03-31T09:26:00.670Z,72.29
2019-03-31T09:28:30.423Z,71.82
2019-03-31T09:31:00.237Z,71.85
2019-03-31T09:33:29.899Z,71.31
2019-03-31T09:35:59.754Z,71.42
2019-03-31T09:38:29.578Z,70.74
2019-03-31T09:40:59.508Z,70.99
2019-03-31T09:43:29.382Z,71.14
2019-03-31T09:45:59.149Z,70.54
2019-03-31T09:48:28.894Z,70.86
2019-03-31T09:50:58.716Z,71.07
2019-03-31T09:53:28.564Z,71.01
2019-03-31T09:55:58.469Z,70.41
2019-03-31T09:58:28.287Z,70.33
2019-03-31T10:00:58.295Z,69.34
2019-03-31T10:03:28.104Z,69.78
2019-03-31T10:06:09.882Z,69.02
2019-03-31T10:08:29.583Z,68.83
2019-03-31T10:11:02.691Z,69.28
2019-03-31T10:13:30.951Z,69.43
2019-03-31T10:16:00.713Z,68.81
2019-03-31T10:18:30.642Z,68.88
2019-03-31T10:21:00.538Z,68.47
2019-03-31T10:23:30.366Z,68.34
2019-03-31T10:26:00.190Z,68.25
2019-03-31T10:28:30.120Z,67.68
2019-03-31T10:30:59.909Z,67.35
2019-03-31T10:33:29.861Z,67.48
2019-03-31T10:35:59.677Z,67.36
2019-03-31T10:38:29.464Z,67.18
2019-03-31T10:40:59.133Z,66.37
2019-03-31T10:43:28.947Z,66.26
2019-03-31T10:45:58.635Z,66.19
2019-03-31T10:48:28.413Z,65.47
2019-03-31T10:50:58.097Z,65.70
2019-03-31T10:53:28.018Z,64.73
2019-03-31T10:55:57.783Z,64.55
2019-03-31T10:58:27.617Z,63.78
2019-03-31T11:00:57.288Z,63.71
2019-03-31T11:03:27.205Z,63.41
2019-03-31T11:05:56.884Z,63.99
2019-03-31T11:08:26.645Z,63.61
2019-03-31T11:10:56.649Z,63.55
2019-03-31T11:13:26.315Z,63.82
2019-03-31T11:15:57.593Z,64.17
2019-03-31T11:18:27.416Z,64.22
2019-03-31T11:20:58.991Z,63.67
2019-03-31T11:23:30.043Z,63.40
2019-03-31T11:25:59.807Z,62.57
2019-03-31T11:28:29.498Z,61.96
2019-03-31T11:30:59.361Z,61.63
2019-03-31T11:33:29.091Z,61.00
2019-03-31T11:35:59.038Z,62.12
2019-03-31T11:38:28.697Z,63.10
2019-03-31T11:40:58.466Z,62.90
2019-03-31T11:43:28.214Z,61.99
2019-03-31T11:45:57.942Z,62.06
2019-03-31T11:48:27.785Z,61.98
2019-03-31T11:51:00.349Z,62.00
2019-03-31T11:53:28.999Z,62.12
2019-03-31T11:55:58.747Z,61.54
2019-03-31T11:58:32.054Z,61.23
2019-03-31T12:00:59.920Z,61.48
2019-03-31T12:03:31.102Z,60.78
2019-03-31T12:06:01.165Z,60.83
2019-03-31T12:08:31.017Z,61.31
2019-03-31T12:11:00.673Z,61.48
2019-03-31T12:13:30.528Z,61.24
2019-03-31T12:16:00.186Z,61.10
2019-03-31T12:18:29.910Z,61.38
2019-03-31T12:20:59.668Z,61.76
2019-03-31T12:23:29.419Z,61.47
2019-03-31T12:25:59.242Z,61.67
2019-03-31T12:28:28.975Z,61.37
2019-03-31T12:30:59.473Z,60.88
2019-03-31T12:33:29.219Z,60.49
2019-03-31T12:35:59.033Z,60.20
2019-03-31T12:38:28.730Z,59.62
2019-03-31T12:40:58.500Z,58.98
2019-03-31T12:43:28.241Z,59.45
2019-03-31T12:45:58.731Z,60.04
2019-03-31T12:48:31.476Z,59.30
2019-03-31T12:51:00.333Z,58.41
2019-03-31T12:53:30.056Z,58.81
2019-03-31T12:56:00.694Z,58.05
2019-03-31T12:58:30.559Z,57.43
2019-03-31T13:01:00.396Z,57.91
2019-03-31T13:03:30.393Z,56.92
2019-03-31T13:06:00.074Z,56.77
2019-03-31T13:08:29.818Z,57.32
2019-03-31T13:10:59.600Z,58.13
2019-03-31T13:13:29.584Z,57.79
2019-03-31T13:15:59.379Z,57.16
2019-03-31T13:18:29.156Z,56.63
2019-03-31T13:20:58.933Z,56.42
2019-03-31T13:23:28.742Z,56.78
2019-03-31T13:25:58.487Z,56.35
2019-03-31T13:28:28.252Z,56.57
2019-03-31T13:30:58.114Z,56.17
2019-03-31T13:33:27.916Z,56.11
2019-03-31T13:35:57.823Z,57.08
2019-03-31T13:38:27.555Z,57.46
2019-03-31T13:40:57.442Z,57.42
2019-03-31T13:43:27.338Z,59.02
2019-03-31T13:45:59.925Z,58.74
2019-03-31T13:48:28.478Z,56.66
2019-03-31T14:15:37.569Z,55.79
2019-03-31T14:18:07.759Z,56.75
2019-03-31T14:20:37.622Z,56.31
2019-03-31T14:23:07.793Z,55.60
2019-03-31T14:25:37.610Z,54.56
2019-03-31T14:28:07.512Z,54.33
2019-03-31T14:30:37.413Z,53.75
2019-03-31T14:33:07.374Z,53.74
2019-03-31T14:35:38.265Z,53.47
2019-03-31T14:38:08.282Z,54.83
2019-03-31T14:40:38.019Z,54.96
2019-03-31T14:43:07.777Z,55.69
2019-03-31T14:45:37.951Z,55.67
2019-03-31T14:48:07.810Z,54.55
2019-03-31T14:50:39.362Z,55.29
2019-03-31T14:53:09.490Z,56.22
2019-03-31T14:55:39.557Z,56.72
2019-03-31T14:58:09.386Z,56.03
2019-03-31T15:00:39.298Z,56.10
2019-03-31T15:03:09.094Z,55.36
2019-03-31T15:05:39.134Z,55.24
2019-03-31T15:08:08.981Z,55.75
2019-03-31T15:10:38.904Z,55.77
2019-03-31T15:13:08.808Z,56.38
2019-03-31T15:15:38.639Z,56.35
2019-03-31T15:18:08.312Z,56.57
2019-03-31T15:20:38.157Z,55.84
2019-03-31T15:23:08.055Z,55.55
2019-03-31T15:25:37.781Z,55.95
2019-03-31T15:28:07.541Z,56.43
2019-03-31T15:30:37.412Z,56.77
2019-03-31T15:33:07.278Z,56.17
2019-03-31T15:35:37.874Z,56.20
2019-03-31T15:38:07.759Z,56.79
2019-03-31T15:40:37.588Z,56.61
2019-03-31T15:43:07.500Z,56.50
2019-03-31T15:45:37.245Z,56.17
2019-03-31T15:48:06.927Z,56.26
2019-03-31T15:50:36.676Z,56.08
2019-03-31T15:53:06.508Z,57.51
2019-03-31T15:55:36.356Z,57.73
2019-03-31T15:58:06.389Z,57.71
2019-03-31T16:00:36.272Z,57.31
2019-03-31T16:03:06.164Z,57.21
2019-03-31T16:05:36.215Z,57.26
2019-03-31T16:08:06.138Z,57.12
2019-03-31T16:10:36.143Z,57.33
2019-03-31T16:13:06.323Z,57.52
2019-03-31T16:15:36.155Z,57.43
2019-03-31T16:18:06.239Z,57.11
2019-03-31T16:20:36.075Z,57.30
2019-03-31T16:23:05.819Z,56.93
2019-03-31T16:25:37.332Z,56.74
2019-03-31T16:28:07.005Z,56.79
2019-03-31T16:30:37.472Z,56.59
2019-03-31T16:33:07.512Z,55.74
2019-03-31T16:35:37.440Z,55.76
2019-03-31T16:38:07.181Z,55.67
2019-03-31T16:40:36.841Z,55.86
2019-03-31T16:43:06.774Z,56.25
2019-03-31T16:45:36.535Z,56.34
2019-03-31T16:48:06.445Z,56.79
2019-03-31T16:50:36.144Z,57.04
2019-03-31T16:53:06.115Z,56.44
2019-03-31T16:55:35.879Z,56.26
2019-03-31T16:58:09.286Z,56.20
2019-03-31T17:00:37.536Z,56.19
2019-03-31T17:03:07.447Z,56.34
2019-03-31T17:05:37.245Z,56.64
2019-03-31T17:08:07.131Z,56.73
2019-03-31T17:10:36.811Z,56.36
2019-03-31T17:13:06.634Z,56.64
2019-03-31T17:15:36.378Z,56.48
2019-03-31T17:18:06.377Z,56.58
2019-03-31T17:20:36.049Z,56.42
2019-03-31T17:23:06.113Z,56.40
2019-03-31T17:25:35.811Z,56.06
2019-03-31T17:28:05.969Z,55.75
2019-03-31T17:30:35.787Z,56.07
2019-03-31T17:33:05.790Z,56.32
2019-03-31T17:35:35.514Z,56.02
2019-03-31T17:38:05.357Z,55.06
2019-03-31T17:40:35.290Z,54.90
2019-03-31T17:43:05.114Z,55.39
2019-03-31T17:45:34.872Z,55.62
2019-03-31T17:48:04.726Z,55.42
2019-03-31T17:50:34.420Z,55.53
2019-03-31T17:53:06.899Z,55.43
2019-03-31T17:55:36.573Z,55.38
2019-03-31T17:58:06.835Z,55.26
2019-03-31T18:00:36.721Z,55.25
2019-03-31T18:03:06.423Z,54.84
2019-03-31T18:05:36.309Z,55.00
2019-03-31T18:08:06.055Z,54.36
2019-03-31T18:10:35.882Z,54.50
2019-03-31T18:13:05.674Z,54.78
2019-03-31T18:15:35.700Z,54.74
2019-03-31T18:18:05.617Z,54.86
2019-03-31T18:20:35.552Z,55.06
2019-03-31T18:23:05.461Z,54.83
2019-03-31T18:25:35.339Z,54.75
2019-03-31T18:28:04.997Z,54.64
2019-03-31T18:30:34.760Z,54.31
2019-03-31T18:33:04.644Z,54.22
2019-03-31T18:35:34.402Z,54.15
2019-03-31T18:38:04.205Z,53.89
2019-03-31T18:40:35.342Z,54.24
2019-03-31T18:43:05.732Z,53.78
2019-03-31T18:45:35.621Z,53.51
2019-03-31T18:48:05.727Z,53.63
2019-03-31T18:50:35.458Z,53.65
2019-03-31T18:53:08.610Z,53.56
2019-03-31T18:55:56.034Z,53.42
2019-03-31T18:58:36.884Z,53.38
2019-03-31T19:01:11.012Z,53.26
2019-03-31T19:03:54.554Z,53.24
2019-03-31T19:06:34.827Z,53.41
2019-03-31T19:09:26.778Z,53.41
2019-03-31T19:12:05.126Z,53.60
2019-03-31T19:14:34.737Z,53.69
2019-03-31T19:17:06.108Z,53.74
2019-03-31T19:19:37.589Z,53.67
2019-03-31T19:22:11.639Z,52.34
2019-03-31T19:24:46.339Z,52.61
2019-03-31T19:27:21.704Z,51.91
2019-03-31T19:30:09.089Z,52.15
2019-03-31T19:32:40.414Z,52.12
2019-03-31T19:35:18.029Z,51.98
2019-03-31T19:37:58.292Z,52.21
2019-03-31T19:40:30.137Z,51.76
2019-03-31T19:43:04.467Z,51.23
2019-03-31T19:45:52.087Z,51.18
2019-03-31T19:48:39.522Z,51.19
2019-03-31T19:51:09.132Z,50.96
2019-03-31T19:53:53.434Z,50.29
2019-03-31T19:56:24.833Z,50.28
2019-03-31T19:58:58.590Z,50.11
2019-03-31T20:01:46.654Z,50.25
2019-03-31T20:04:20.540Z,50.04
2019-03-31T20:06:49.945Z,50.46
2019-03-31T20:09:33.300Z,50.55
2019-03-31T20:12:21.350Z,50.79
2019-03-31T20:15:07.668Z,50.67
2019-03-31T20:17:44.761Z,50.96
2019-03-31T20:20:19.269Z,50.84
2019-03-31T20:23:08.873Z,51.13
2019-03-31T20:25:55.584Z,51.14
2019-03-31T20:28:25.120Z,51.09
2019-03-31T20:31:05.332Z,51.04
2019-03-31T20:33:36.718Z,51.36
2019-03-31T20:36:24.073Z,51.40
2019-03-31T20:38:59.447Z,51.58
2019-03-31T20:41:45.770Z,51.73
2019-03-31T20:44:15.699Z,51.89
2019-03-31T20:46:45.429Z,52.21
2019-03-31T20:49:15.193Z,52.41
2019-03-31T20:51:44.917Z,52.41
2019-03-31T20:54:15.021Z,52.63
2019-03-31T20:56:44.742Z,52.77
2019-03-31T20:59:14.512Z,52.84
2019-03-31T21:01:44.290Z,53.09
2019-03-31T21:04:14.005Z,53.28
2019-03-31T21:06:43.846Z,53.60
2019-03-31T21:09:13.514Z,53.87
2019-03-31T21:11:43.589Z,54.06
2019-03-31T21:14:13.307Z,54.32
2019-03-31T21:16:43.434Z,54.40
2019-03-31T21:19:13.257Z,54.76
2019-03-31T21:21:43.169Z,55.03
2019-03-31T21:24:12.930Z,55.02
2019-03-31T21:26:42.879Z,55.19
2019-03-31T21:29:12.628Z,55.44
2019-03-31T21:31:42.420Z,55.69
2019-03-31T21:34:12.095Z,55.75
2019-03-31T21:36:41.899Z,56.27
2019-03-31T21:39:11.642Z,56.34
2019-03-31T21:41:41.379Z,56.25
2019-03-31T21:44:11.216Z,56.21
2019-03-31T21:46:41.047Z,56.25
2019-03-31T21:49:10.915Z,56.53
2019-03-31T21:51:40.830Z,56.41
2019-03-31T21:54:10.453Z,56.26
2019-03-31T21:56:40.213Z,55.81
2019-03-31T21:59:09.953Z,55.95
2019-03-31T22:01:39.828Z,56.16
2019-03-31T22:04:09.667Z,56.75
2019-03-31T22:06:39.459Z,57.00
2019-03-31T22:09:11.148Z,57.23
2019-03-31T22:11:40.846Z,56.22
2019-03-31T22:14:10.971Z,55.88
2019-03-31T22:16:40.671Z,55.75
2019-03-31T22:19:10.426Z,55.18
2019-03-31T22:21:40.101Z,54.81
2019-03-31T22:24:10.188Z,55.17
2019-03-31T22:26:39.936Z,60.00
2019-03-31T22:29:09.665Z,54.37
2019-03-31T22:31:39.349Z,54.53
2019-03-31T22:34:09.280Z,54.76
2019-03-31T22:36:39.005Z,54.68
2019-03-31T22:39:09.347Z,54.85
2019-03-31T22:41:39.265Z,54.99
2019-03-31T22:44:08.939Z,55.31
2019-03-31T22:46:38.886Z,55.24
2019-03-31T22:49:08.644Z,55.52
2019-03-31T22:51:38.585Z,55.48
2019-03-31T22:54:08.345Z,55.83
2019-03-31T22:56:38.198Z,56.02
2019-03-31T22:59:09.727Z,56.14
2019-03-31T23:01:39.470Z,56.19
2019-03-31T23:04:09.332Z,56.15
2019-03-31T23:06:39.191Z,56.10
2019-03-31T23:09:09.039Z,56.17
2019-03-31T23:11:38.830Z,56.57
2019-03-31T23:14:08.566Z,56.76
2019-03-31T23:16:38.398Z,57.14
2019-03-31T23:19:08.050Z,57.45
2019-03-31T23:21:37.793Z,57.27
2019-03-31T23:24:07.455Z,57.34
2019-03-31T23:26:37.306Z,57.54
2019-03-31T23:29:08.276Z,57.86
2019-03-31T23:31:38.117Z,57.93
2019-03-31T23:34:07.924Z,58.05
2019-03-31T23:36:37.637Z,58.21
2019-03-31T23:39:08.765Z,58.13
2019-03-31T23:41:38.409Z,58.15
2019-03-31T23:44:08.128Z,58.30
2019-03-31T23:46:37.803Z,58.38
2019-03-31T23:49:07.560Z,58.10
2019-03-31T23:51:37.364Z,58.15
2019-03-31T23:54:07.367Z,58.57
2019-03-31T23:56:37.028Z,58.69
2019-03-31T23:59:06.863Z,59.09
